createdAt,value
2019-03-05T00:03:26.442Z,7.50
2019-03-05T00:08:31.649Z,7.40
2019-03-05T00:13:36.491Z,7.40
2019-03-05T00:18:41.524Z,7.40
2019-03-05T00:23:49.748Z,7.50
2019-03-05T00:28:58.178Z,7.40
2019-03-05T00:34:06.251Z,7.40
2019-03-05T00:39:14.324Z,7.50
2019-03-05T00:44:20.578Z,7.40
2019-03-05T00:49:28.808Z,7.40
2019-03-05T00:54:36.910Z,7.40
2019-03-05T00:59:45.025Z,7.50
2019-03-05T01:04:53.184Z,7.50
2019-03-05T01:09:58.530Z,7.50
2019-03-05T01:15:04.746Z,7.50
2019-03-05T01:20:12.110Z,7.50
2019-03-05T01:25:20.296Z,7.50
2019-03-05T01:30:28.347Z,7.50
2019-03-05T01:35:35.255Z,7.50
2019-03-05T01:40:41.025Z,7.40
2019-03-05T01:45:46.375Z,7.40
2019-03-05T01:50:51.618Z,7.30
2019-03-05T01:55:57.096Z,7.30
2019-03-05T02:01:02.568Z,7.30
2019-03-05T02:06:07.740Z,7.30
2019-03-05T02:11:13.808Z,7.20
2019-03-05T02:16:19.146Z,7.20
2019-03-05T02:21:24.707Z,7.10
2019-03-05T02:26:33.136Z,7.00
2019-03-05T02:31:41.773Z,6.90
2019-03-05T02:36:50.424Z,6.90
2019-03-05T02:41:58.696Z,6.80
2019-03-05T02:47:24.656Z,6.80
2019-03-05T02:52:33.430Z,6.70
2019-03-05T02:57:38.045Z,6.60
2019-03-05T03:02:45.115Z,6.60
2019-03-05T03:07:50.279Z,6.60
2019-03-05T03:12:55.557Z,6.50
2019-03-05T03:18:00.473Z,6.50
2019-03-05T03:23:05.667Z,6.40
2019-03-05T03:28:11.445Z,6.40
2019-03-05T03:33:16.484Z,6.30
2019-03-05T03:38:21.706Z,6.20
2019-03-05T03:43:26.787Z,6.10
2019-03-05T03:48:32.102Z,6.10
2019-03-05T03:53:37.560Z,6.10
2019-03-05T03:58:43.220Z,6.10
2019-03-05T04:03:48.631Z,6.00
2019-03-05T04:08:54.184Z,5.90
2019-03-05T04:13:59.917Z,6.00
2019-03-05T04:19:06.912Z,6.00
2019-03-05T04:24:12.333Z,6.00
2019-03-05T04:29:18.158Z,6.00
2019-03-05T04:34:24.420Z,6.00
2019-03-05T04:39:49.694Z,6.10
2019-03-05T04:44:56.585Z,6.10
2019-03-05T04:50:03.616Z,6.10
2019-03-05T04:55:08.957Z,6.10
2019-03-05T05:00:14.980Z,6.10
2019-03-05T05:05:20.733Z,6.10
2019-03-05T05:10:25.873Z,6.10
2019-03-05T05:15:33.929Z,6.10
2019-03-05T05:20:39.249Z,6.10
2019-03-05T05:25:44.758Z,6.20
2019-03-05T05:30:49.934Z,6.10
2019-03-05T05:35:55.063Z,6.10
2019-03-05T05:41:00.529Z,6.10
2019-03-05T05:46:05.617Z,6.20
2019-03-05T05:51:11.384Z,6.20
2019-03-05T05:56:16.580Z,6.20
2019-03-05T06:01:21.873Z,6.20
2019-03-05T06:06:27.509Z,6.20
2019-03-05T06:11:33.011Z,6.20
2019-03-05T06:16:38.116Z,6.30
2019-03-05T06:21:42.904Z,6.30
2019-03-05T06:26:47.904Z,6.40
2019-03-05T06:31:53.060Z,6.60
2019-03-05T06:36:58.597Z,6.60
2019-03-05T06:42:03.763Z,6.60
2019-03-05T06:47:09.343Z,6.70
2019-03-05T06:52:14.343Z,6.80
2019-03-05T06:57:19.223Z,6.90
2019-03-05T07:02:24.268Z,6.90
2019-03-05T07:07:29.252Z,7.00
2019-03-05T07:12:37.271Z,7.00
2019-03-05T07:17:45.417Z,7.10
2019-03-05T07:22:53.682Z,7.20
2019-03-05T07:27:59.051Z,7.30
2019-03-05T07:33:04.550Z,7.40
2019-03-05T07:38:09.771Z,7.60
2019-03-05T07:43:14.807Z,7.70
2019-03-05T07:48:19.679Z,7.90
2019-03-05T07:53:25.071Z,8.00
2019-03-05T07:58:30.889Z,8.20
2019-03-05T08:03:36.091Z,8.00
2019-03-05T08:08:44.165Z,8.10
2019-03-05T08:13:51.917Z,8.30
2019-03-05T08:18:56.923Z,8.40
2019-03-05T08:24:01.891Z,8.50
2019-03-05T08:29:06.795Z,8.50
2019-03-05T08:34:12.118Z,8.30
2019-03-05T08:39:17.230Z,8.20
2019-03-05T08:44:22.527Z,8.20
2019-03-05T08:49:27.703Z,8.20
2019-03-05T08:54:32.609Z,8.20
2019-03-05T08:59:37.735Z,8.30
2019-03-05T09:04:43.299Z,8.20
2019-03-05T09:09:48.487Z,8.10
2019-03-05T09:14:53.800Z,8.10
2019-03-05T09:19:58.993Z,8.10
2019-03-05T09:25:05.324Z,8.10
2019-03-05T09:30:13.498Z,8.10
2019-03-05T09:35:18.483Z,8.20
2019-03-05T09:40:26.396Z,8.20
2019-03-05T09:45:31.620Z,8.30
2019-03-05T09:50:36.549Z,8.40
2019-03-05T09:56:01.296Z,8.50
2019-03-05T10:01:07.246Z,8.50
2019-03-05T10:06:12.406Z,8.80
2019-03-05T10:11:17.695Z,8.90
2019-03-05T10:16:30.135Z,8.80
2019-03-05T10:22:00.811Z,8.80
2019-03-05T10:27:14.349Z,8.80
2019-03-05T10:32:19.763Z,8.90
2019-03-05T10:37:49.213Z,8.80
2019-03-05T10:43:18.508Z,8.60
2019-03-05T10:48:50.411Z,8.70
2019-03-05T10:53:56.701Z,8.90
2019-03-05T10:59:01.592Z,9.00
2019-03-05T11:04:07.238Z,9.10
2019-03-05T11:09:13.311Z,8.90
2019-03-05T11:14:19.403Z,8.80
2019-03-05T11:19:24.894Z,8.70
2019-03-05T11:24:29.947Z,8.70
2019-03-05T11:29:35.023Z,8.70
2019-03-05T11:34:40.667Z,8.70
2019-03-05T11:39:45.815Z,9.00
2019-03-05T11:45:03.842Z,9.20
2019-03-05T11:49:57.689Z,9.30
2019-03-05T11:55:02.965Z,9.60
2019-03-05T12:00:11.317Z,9.50
2019-03-05T12:05:16.462Z,9.40
2019-03-05T12:10:23.969Z,9.00
2019-03-05T12:15:31.690Z,8.80
2019-03-05T12:20:36.863Z,8.70
2019-03-05T12:25:42.046Z,8.80
2019-03-05T12:30:47.486Z,8.70
2019-03-05T12:35:52.880Z,8.80
2019-03-05T12:40:57.957Z,9.00
2019-03-05T12:46:03.295Z,9.20
2019-03-05T12:51:09.080Z,9.40
2019-03-05T12:56:23.395Z,9.50
2019-03-05T13:01:21.327Z,9.50
2019-03-05T13:06:26.287Z,9.40
2019-03-05T13:11:31.406Z,9.60
2019-03-05T13:16:39.478Z,9.80
2019-03-05T13:21:44.141Z,10.30
2019-03-05T13:27:08.098Z,10.10
2019-03-05T13:32:16.858Z,9.90
2019-03-05T13:37:20.474Z,9.70
2019-03-05T13:42:29.129Z,9.70
2019-03-05T13:47:32.364Z,9.50
2019-03-05T13:52:40.493Z,9.40
2019-03-05T13:57:46.916Z,9.40
2019-03-05T14:02:55.032Z,9.30
2019-03-05T14:08:21.323Z,9.40
2019-03-05T14:13:26.858Z,9.40
2019-03-05T14:18:32.185Z,9.40
2019-03-05T14:23:37.839Z,9.30
2019-03-05T14:28:43.204Z,9.50
2019-03-05T14:33:51.833Z,9.70
2019-03-05T14:38:56.917Z,9.90
2019-03-05T14:44:02.002Z,9.80
2019-03-05T14:49:07.689Z,9.60
2019-03-05T14:54:12.666Z,9.30
2019-03-05T14:59:17.890Z,9.20
2019-03-05T15:04:23.084Z,9.30
2019-03-05T15:09:28.058Z,9.20
2019-03-05T15:14:33.256Z,9.00
2019-03-05T15:19:38.498Z,9.00
2019-03-05T15:25:04.395Z,9.00
2019-03-05T15:30:12.846Z,8.90
2019-03-05T15:35:17.985Z,8.90
2019-03-05T15:40:23.242Z,8.80
2019-03-05T15:45:28.400Z,8.70
2019-03-05T15:50:33.561Z,8.60
2019-03-05T15:55:39.002Z,8.50
2019-03-05T16:01:04.935Z,8.40
2019-03-05T16:06:10.686Z,8.40
2019-03-05T16:11:16.123Z,8.20
2019-03-05T16:16:21.442Z,8.20
2019-03-05T16:21:26.573Z,8.20
2019-03-05T16:26:31.649Z,8.10
2019-03-05T16:31:38.590Z,8.10
2019-03-05T16:36:45.746Z,8.10
2019-03-05T16:41:53.509Z,8.10
2019-03-05T16:47:01.445Z,8.10
2019-03-05T16:52:08.557Z,8.10
2019-03-05T16:57:15.214Z,8.00
2019-03-05T17:02:21.718Z,8.00
2019-03-05T17:07:28.992Z,8.00
2019-03-05T17:12:33.852Z,8.00
2019-03-05T17:17:39.136Z,7.90
2019-03-05T17:22:44.006Z,7.80
2019-03-05T17:27:49.219Z,7.80
2019-03-05T17:32:54.220Z,7.70
2019-03-05T17:37:59.282Z,7.60
2019-03-05T17:43:04.925Z,7.50
2019-03-05T17:48:10.277Z,7.50
2019-03-05T17:53:15.549Z,7.50
2019-03-05T17:58:20.721Z,7.40
2019-03-05T18:03:25.677Z,7.30
2019-03-05T18:08:31.361Z,7.30
2019-03-05T18:13:36.759Z,7.20
2019-03-05T18:18:42.092Z,7.20
2019-03-05T18:23:47.192Z,7.20
2019-03-05T18:28:52.597Z,7.20
2019-03-05T18:33:58.302Z,7.20
2019-03-05T18:39:03.558Z,7.10
2019-03-05T18:44:08.805Z,7.10
2019-03-05T18:49:13.965Z,7.00
2019-03-05T18:54:19.199Z,6.90
2019-03-05T18:59:24.615Z,6.90
2019-03-05T19:04:30.072Z,6.90
2019-03-05T19:09:35.010Z,6.90
2019-03-05T19:14:40.073Z,6.90
2019-03-05T19:19:45.432Z,6.90
2019-03-05T19:24:50.850Z,6.80
2019-03-05T19:29:56.192Z,6.70
2019-03-05T19:35:02.323Z,6.60
2019-03-05T19:40:11.213Z,6.60
2019-03-05T19:45:18.009Z,6.50
2019-03-05T19:50:24.654Z,6.50
2019-03-05T19:55:30.889Z,6.50
2019-03-05T20:00:41.413Z,6.60
2019-03-05T20:05:47.096Z,6.50
2019-03-05T20:10:52.681Z,6.50
2019-03-05T20:15:57.778Z,6.60
2019-03-05T20:21:02.700Z,6.60
2019-03-05T20:26:08.718Z,6.50
2019-03-05T20:31:14.371Z,6.50
2019-03-05T20:36:19.474Z,6.60
2019-03-05T20:41:24.699Z,6.60
2019-03-05T20:46:29.717Z,6.50
2019-03-05T20:51:34.742Z,6.50
2019-03-05T20:56:39.954Z,6.50
2019-03-05T21:01:44.988Z,6.50
2019-03-05T21:06:50.322Z,6.50
2019-03-05T21:11:55.819Z,6.50
2019-03-05T21:17:00.974Z,6.50
2019-03-05T21:22:06.186Z,6.50
2019-03-05T21:27:11.471Z,6.60
2019-03-05T21:32:16.329Z,6.70
2019-03-05T21:37:21.307Z,6.80
2019-03-05T21:42:26.539Z,6.80
2019-03-05T21:47:31.697Z,6.80
2019-03-05T21:52:37.129Z,6.60
2019-03-05T21:57:42.196Z,6.40
2019-03-05T22:03:06.967Z,6.30
2019-03-05T22:08:12.170Z,6.20
2019-03-05T22:13:17.420Z,6.00
2019-03-05T22:18:22.722Z,5.90
2019-03-05T22:23:27.711Z,5.90
2019-03-05T22:28:33.217Z,5.90
2019-03-05T22:33:38.270Z,5.80
2019-03-05T22:38:43.378Z,5.80
2019-03-05T22:43:48.710Z,5.70
2019-03-05T22:48:53.913Z,5.70
2019-03-05T22:53:59.241Z,5.60
2019-03-05T22:59:04.397Z,5.50
2019-03-05T23:04:09.484Z,5.50
2019-03-05T23:09:16.260Z,5.50
2019-03-05T23:14:22.257Z,5.40
2019-03-05T23:19:28.118Z,5.30
2019-03-05T23:24:33.175Z,5.30
2019-03-05T23:29:40.800Z,5.30
2019-03-05T23:34:46.347Z,5.20
2019-03-05T23:39:52.095Z,5.20
2019-03-05T23:44:57.693Z,5.20
2019-03-05T23:50:03.483Z,5.20
2019-03-05T23:55:09.401Z,5.10
